Time;durP1;ratioP1;P1;durP2;ratioP2;P2;SDS_P1;SDS_P2;PMS_P1;PMS_P2;Temp;Humidity;BMP_temperature;BMP_pressure;BME280_temperature;BME280_humidity;BME280_pressure;Samples;Min_cycle;Max_cycle;Signal;HPM_P1;HPM_P2
2023/05/09 00:00:12;;;;;;;148.15;40.63;;;14.30;99.90;;;;;;5024961;28;20041;-67
2023/05/09 00:02:40;;;;;;;164.20;42.10;;;14.10;99.90;;;;;;5044987;28;20033;-67
2023/05/09 00:05:08;;;;;;;140.93;41.85;;;14.30;99.90;;;;;;5045789;28;20047;-67
2023/05/09 00:07:34;;;;;;;179.88;42.90;;;14.20;99.90;;;;;;5066317;28;20037;-67
2023/05/09 00:10:00;;;;;;;142.27;42.30;;;14.20;99.90;;;;;;5049564;28;20045;-67
2023/05/09 00:12:31;;;;;;;143.85;41.83;;;14.40;99.90;;;;;;5051132;28;20041;-67
2023/05/09 00:14:56;;;;;;;120.43;39.30;;;14.40;99.90;;;;;;5048054;28;20044;-67
2023/05/09 00:17:51;;;;;;;118.82;38.08;;;14.40;99.90;;;;;;5044872;28;20037;-67
2023/05/09 00:20:17;;;;;;;186.38;41.65;;;14.30;99.90;;;;;;5085832;28;20450;-67
2023/05/09 00:22:43;;;;;;;131.07;40.08;;;14.10;99.90;;;;;;5046411;28;20102;-66
2023/05/09 00:25:09;;;;;;;208.55;46.03;;;14.10;99.90;;;;;;5051518;28;20037;-67
2023/05/09 00:27:35;;;;;;;193.20;43.33;;;14.10;99.90;;;;;;5046681;28;20045;-68
2023/05/09 00:30:00;;;;;;;165.52;44.47;;;14.10;99.90;;;;;;5047046;28;20048;-67
2023/05/09 00:32:27;;;;;;;159.15;41.67;;;14.30;99.90;;;;;;5076734;28;20045;-67
2023/05/09 00:34:53;;;;;;;122.18;39.58;;;14.30;99.90;;;;;;5055083;28;20036;-67
2023/05/09 00:37:19;;;;;;;153.52;41.20;;;14.40;99.90;;;;;;5046683;28;20452;-66
2023/05/09 00:39:46;;;;;;;181.65;44.50;;;14.20;99.90;;;;;;5049027;28;20118;-66
2023/05/09 00:42:12;;;;;;;121.45;40.33;;;14.30;99.90;;;;;;5045858;28;20036;-67
2023/05/09 00:44:37;;;;;;;145.13;41.15;;;14.40;99.90;;;;;;5045677;28;20438;-66
2023/05/09 00:47:03;;;;;;;102.78;36.45;;;14.20;99.90;;;;;;5039225;28;20037;-66
2023/05/09 00:49:28;;;;;;;105.30;37.53;;;14.00;99.90;;;;;;5037069;28;20148;-66
2023/05/09 00:51:55;;;;;;;249.75;43.15;;;14.20;99.90;;;;;;5041716;28;20037;-66
2023/05/09 00:54:21;;;;;;;131.90;40.35;;;14.10;99.90;;;;;;5044873;28;20044;-66
2023/05/09 00:56:46;;;;;;;130.32;39.33;;;14.10;99.90;;;;;;5043388;28;20045;-66
2023/05/09 00:59:12;;;;;;;127.57;38.33;;;14.10;99.90;;;;;;5040906;28;20135;-66
2023/05/09 01:01:38;;;;;;;293.02;49.58;;;14.10;99.90;;;;;;5039561;28;20033;-66
2023/05/09 01:04:04;;;;;;;303.50;48.15;;;13.80;99.90;;;;;;5041751;28;20124;-66
2023/05/09 01:06:43;;;;;;;287.73;45.03;;;14.00;99.90;;;;;;5047815;28;20048;-67
2023/05/09 01:09:31;;;;;;;225.38;44.65;;;13.70;99.90;;;;;;5040300;28;20041;-66
2023/05/09 01:12:19;;;;;;;173.45;41.40;;;13.90;99.90;;;;;;5039938;28;20037;-67
2023/05/09 01:15:20;;;;;;;218.23;43.80;;;13.80;99.90;;;;;;5046110;28;20037;-66
2023/05/09 01:18:15;;;;;;;98.22;34.95;;;13.60;99.90;;;;;;4972368;28;20132;-66
2023/05/09 01:20:44;;;;;;;187.43;41.42;;;13.70;99.90;;;;;;5042529;28;20044;-66
2023/05/09 01:23:32;;;;;;;109.07;36.83;;;13.70;99.90;;;;;;5046068;28;20044;-66
2023/05/09 01:26:09;;;;;;;96.78;35.90;;;13.70;99.90;;;;;;5038776;28;20037;-66
2023/05/09 01:29:05;;;;;;;138.45;40.83;;;13.70;99.90;;;;;;5032759;28;20433;-66
2023/05/09 01:31:33;;;;;;;110.05;38.10;;;13.80;99.90;;;;;;5022345;28;20053;-66
2023/05/09 01:34:01;;;;;;;116.80;35.28;;;13.80;99.90;;;;;;5035707;28;20048;-66
2023/05/09 01:36:29;;;;;;;174.77;41.78;;;13.60;99.90;;;;;;5037860;28;20037;-66
2023/05/09 01:38:58;;;;;;;205.82;44.42;;;13.80;99.90;;;;;;5040068;28;20408;-66
2023/05/09 01:41:29;;;;;;;147.00;40.38;;;13.70;99.90;;;;;;5039455;28;20138;-66
2023/05/09 01:43:57;;;;;;;133.77;37.78;;;13.60;99.90;;;;;;5038729;28;20075;-66
2023/05/09 01:46:25;;;;;;;320.63;49.33;;;13.80;99.90;;;;;;5073064;28;20123;-67
2023/05/09 01:48:53;;;;;;;345.20;49.95;;;13.50;99.90;;;;;;5037211;28;21696;-66
2023/05/09 01:51:20;;;;;;;275.48;47.47;;;13.80;99.90;;;;;;5037972;28;20044;-67
2023/05/09 01:53:48;;;;;;;224.48;43.20;;;13.70;99.90;;;;;;5035291;28;20052;-66
2023/05/09 01:56:15;;;;;;;195.65;37.72;;;13.70;99.90;;;;;;5037244;28;20143;-67
2023/05/09 01:58:42;;;;;;;248.25;41.40;;;13.60;99.90;;;;;;5067733;28;20503;-66
2023/05/09 02:01:09;;;;;;;197.38;37.42;;;13.30;99.90;;;;;;5037563;28;20037;-67
2023/05/09 02:03:37;;;;;;;169.85;36.53;;;13.30;99.90;;;;;;5037917;28;20082;-66
2023/05/09 02:06:04;;;;;;;254.13;41.45;;;13.30;99.90;;;;;;5076678;28;20275;-66
2023/05/09 02:08:31;;;;;;;205.65;39.25;;;13.30;99.90;;;;;;5036578;28;20033;-67
2023/05/09 02:10:57;;;;;;;165.18;36.33;;;13.40;99.90;;;;;;5040396;28;20052;-66
2023/05/09 02:13:23;;;;;;;136.27;35.63;;;13.20;99.90;;;;;;5036667;28;20127;-67
2023/05/09 02:15:48;;;;;;;128.85;35.05;;;13.40;99.90;;;;;;5067441;28;20052;-66
2023/05/09 02:18:15;;;;;;;86.60;32.78;;;13.50;99.90;;;;;;5035411;28;20033;-67
2023/05/09 02:20:41;;;;;;;159.10;40.58;;;13.50;99.90;;;;;;5038747;28;20037;-67
2023/05/09 02:23:07;;;;;;;276.27;47.25;;;13.40;99.90;;;;;;5032154;28;20373;-66
2023/05/09 02:25:33;;;;;;;274.38;47.42;;;13.60;99.90;;;;;;5036698;28;20034;-66
2023/05/09 02:28:00;;;;;;;160.20;40.75;;;13.30;99.90;;;;;;5037298;28;20041;-66
2023/05/09 02:30:29;;;;;;;291.70;47.85;;;13.60;99.90;;;;;;5068061;28;20492;-66
2023/05/09 02:33:03;;;;;;;455.13;59.47;;;13.60;99.90;;;;;;5017742;28;20403;-66
2023/05/09 02:35:29;;;;;;;332.73;51.70;;;13.50;99.90;;;;;;5038020;28;20045;-66
2023/05/09 02:37:57;;;;;;;281.95;45.60;;;13.50;99.90;;;;;;5037609;28;20076;-66
2023/05/09 02:40:25;;;;;;;284.13;44.80;;;13.50;99.90;;;;;;5034367;28;20494;-67
2023/05/09 02:42:50;;;;;;;220.65;43.08;;;13.40;99.90;;;;;;5035375;28;20051;-67
2023/05/09 02:45:16;;;;;;;224.68;47.75;;;13.30;99.90;;;;;;5032946;28;20028;-66
2023/05/09 02:47:41;;;;;;;120.75;36.03;;;13.40;99.90;;;;;;5068699;28;20033;-66
2023/05/09 02:50:07;;;;;;;249.25;44.67;;;13.50;99.90;;;;;;5029569;28;20041;-67
2023/05/09 02:52:33;;;;;;;110.00;34.60;;;13.60;99.90;;;;;;5030667;28;20462;-66
2023/05/09 02:54:59;;;;;;;109.95;37.42;;;13.60;99.90;;;;;;5031944;28;20639;-67
2023/05/09 02:57:24;;;;;;;100.53;35.97;;;13.50;99.90;;;;;;5033130;28;20052;-67
2023/05/09 02:59:50;;;;;;;91.22;34.00;;;13.50;99.90;;;;;;5064277;28;20040;-67
2023/05/09 03:02:16;;;;;;;82.97;30.10;;;13.50;99.90;;;;;;5031717;28;20056;-67
2023/05/09 03:04:41;;;;;;;87.65;30.35;;;13.60;99.90;;;;;;5035226;28;20039;-67
2023/05/09 03:07:07;;;;;;;74.78;27.17;;;13.40;99.90;;;;;;5030145;28;20048;-66
2023/05/09 03:09:32;;;;;;;72.40;27.67;;;13.40;99.90;;;;;;5033150;28;20339;-67
2023/05/09 03:11:58;;;;;;;64.15;27.15;;;13.30;99.90;;;;;;5035439;28;20389;-67
2023/05/09 03:14:23;;;;;;;152.63;35.03;;;13.30;99.90;;;;;;5030897;28;20041;-67
2023/05/09 03:16:49;;;;;;;212.98;37.28;;;13.50;99.90;;;;;;5030876;28;20036;-67
2023/05/09 03:19:15;;;;;;;161.18;33.10;;;13.50;99.90;;;;;;5029165;28;20037;-67
2023/05/09 03:21:40;;;;;;;115.80;29.63;;;13.30;99.90;;;;;;5030348;28;20094;-67
2023/05/09 03:24:06;;;;;;;97.40;29.63;;;13.30;99.90;;;;;;5031557;28;20037;-67
2023/05/09 03:26:34;;;;;;;68.20;26.48;;;13.50;99.90;;;;;;5033056;28;20455;-67
2023/05/09 03:29:00;;;;;;;67.25;27.50;;;13.30;99.90;;;;;;5030035;28;20037;-67
2023/05/09 03:31:26;;;;;;;126.05;31.83;;;13.30;99.90;;;;;;5034391;28;20056;-67
2023/05/09 03:33:51;;;;;;;68.18;26.98;;;13.30;99.90;;;;;;5032474;28;20122;-67
2023/05/09 03:36:17;;;;;;;76.93;26.92;;;13.50;99.90;;;;;;5038908;28;20538;-67
2023/05/09 03:38:42;;;;;;;65.60;26.08;;;13.20;99.90;;;;;;5029437;28;20029;-67
2023/05/09 03:41:08;;;;;;;73.93;28.88;;;13.30;99.90;;;;;;5050748;28;20037;-67
2023/05/09 03:43:34;;;;;;;88.18;30.70;;;13.50;99.90;;;;;;5070200;28;20068;-67
2023/05/09 03:45:59;;;;;;;152.88;34.25;;;13.60;99.90;;;;;;5036371;28;20378;-67
2023/05/09 03:48:25;;;;;;;100.68;34.97;;;13.40;99.90;;;;;;5037140;28;20071;-67
2023/05/09 03:50:51;;;;;;;90.13;33.55;;;13.50;99.90;;;;;;5041158;28;20187;-66
2023/05/09 03:53:16;;;;;;;172.68;39.75;;;13.30;99.90;;;;;;5036407;28;20049;-67
2023/05/09 03:55:42;;;;;;;126.97;36.80;;;13.40;99.90;;;;;;5036541;28;20040;-66
2023/05/09 03:58:07;;;;;;;103.47;34.72;;;13.60;99.90;;;;;;5033286;28;20044;-66
2023/05/09 04:00:33;;;;;;;99.00;36.50;;;13.40;99.90;;;;;;5035548;28;20052;-66
2023/05/09 04:02:58;;;;;;;92.43;35.30;;;13.70;99.90;;;;;;5037377;28;20401;-66
2023/05/09 04:05:25;;;;;;;262.77;45.33;;;13.60;99.90;;;;;;5073223;28;20036;-66
2023/05/09 04:07:51;;;;;;;128.82;36.75;;;13.70;99.90;;;;;;5028892;28;20087;-67
2023/05/09 04:10:17;;;;;;;127.07;38.72;;;13.50;99.90;;;;;;5037530;28;20136;-66
2023/05/09 04:12:42;;;;;;;94.78;34.25;;;13.70;99.90;;;;;;5038354;28;20082;-67
2023/05/09 04:15:08;;;;;;;211.10;42.80;;;13.60;99.90;;;;;;5041513;28;20040;-66
2023/05/09 04:17:34;;;;;;;176.27;40.13;;;13.70;99.90;;;;;;5037353;28;20033;-67
2023/05/09 04:20:00;;;;;;;105.00;35.88;;;13.70;99.90;;;;;;5037673;28;20056;-66
2023/05/09 04:22:25;;;;;;;121.70;39.80;;;13.80;99.90;;;;;;5042888;28;20120;-67
2023/05/09 04:24:51;;;;;;;230.65;46.47;;;13.90;99.90;;;;;;5039170;28;20045;-67
2023/05/09 04:27:16;;;;;;;189.93;44.22;;;13.90;99.90;;;;;;5040898;28;20419;-66
2023/05/09 04:29:42;;;;;;;165.40;45.15;;;13.60;99.90;;;;;;5071974;28;20132;-67
2023/05/09 04:32:07;;;;;;;145.82;45.03;;;13.70;99.90;;;;;;5034220;28;20130;-68
2023/05/09 04:34:33;;;;;;;285.65;54.65;;;13.70;99.90;;;;;;5033178;28;20046;-67
2023/05/09 04:36:58;;;;;;;194.63;49.17;;;13.80;99.90;;;;;;5033380;28;20060;-67
2023/05/09 04:39:24;;;;;;;198.88;50.38;;;13.70;99.90;;;;;;5038597;28;20049;-68
2023/05/09 04:41:50;;;;;;;308.02;56.97;;;13.90;99.90;;;;;;5042354;28;20075;-67
2023/05/09 04:44:16;;;;;;;151.70;48.13;;;13.90;99.90;;;;;;5037264;28;20068;-67
2023/05/09 04:46:42;;;;;;;238.85;53.65;;;14.10;99.90;;;;;;5036948;28;20369;-67
2023/05/09 04:49:08;;;;;;;194.27;50.88;;;14.00;99.90;;;;;;5019614;28;20412;-68
2023/05/09 04:51:33;;;;;;;378.67;62.45;;;14.10;99.90;;;;;;5036677;28;20048;-67
2023/05/09 04:53:59;;;;;;;259.08;57.00;;;14.20;99.90;;;;;;5033645;28;20041;-68
2023/05/09 04:56:25;;;;;;;257.88;54.50;;;14.00;99.90;;;;;;5035256;28;20052;-67
2023/05/09 04:58:51;;;;;;;232.45;54.40;;;14.10;99.90;;;;;;5039701;28;20195;-67
2023/05/09 05:01:17;;;;;;;218.95;54.90;;;14.00;99.90;;;;;;5034085;28;20355;-67
2023/05/09 05:03:43;;;;;;;213.73;55.42;;;14.00;99.90;;;;;;5037027;28;20044;-67
2023/05/09 05:06:08;;;;;;;230.07;54.25;;;14.30;99.90;;;;;;5036157;28;20481;-67
2023/05/09 05:08:34;;;;;;;287.58;57.83;;;14.20;99.90;;;;;;5037249;28;20083;-67
2023/05/09 05:10:59;;;;;;;167.35;51.53;;;14.20;99.90;;;;;;5039995;28;20033;-67
2023/05/09 05:13:25;;;;;;;235.75;55.67;;;14.30;99.90;;;;;;5029541;28;20412;-68
2023/05/09 05:15:51;;;;;;;188.23;53.50;;;14.20;99.90;;;;;;5041156;28;20041;-67
2023/05/09 05:18:17;;;;;;;149.48;49.63;;;14.40;99.90;;;;;;5032638;28;20091;-68
2023/05/09 05:20:42;;;;;;;118.53;46.20;;;14.40;99.90;;;;;;5033919;28;20503;-67
2023/05/09 05:23:09;;;;;;;226.73;53.58;;;14.50;99.90;;;;;;5039019;28;20043;-67
2023/05/09 05:25:34;;;;;;;171.70;51.90;;;14.30;99.90;;;;;;5045455;28;20072;-68
2023/05/09 05:28:00;;;;;;;167.52;51.67;;;14.60;99.90;;;;;;5038350;28;20390;-67
2023/05/09 05:30:25;;;;;;;128.52;48.78;;;14.40;99.90;;;;;;5045867;28;20049;-68
2023/05/09 05:32:51;;;;;;;153.45;51.60;;;14.40;99.90;;;;;;5047042;28;20041;-68
2023/05/09 05:35:16;;;;;;;136.13;49.58;;;14.70;99.90;;;;;;5043549;28;20368;-68
2023/05/09 05:37:43;;;;;;;315.98;63.70;;;14.40;99.90;;;;;;5076023;28;20032;-67
2023/05/09 05:40:09;;;;;;;132.77;49.00;;;14.70;99.90;;;;;;5038799;28;20440;-67
2023/05/09 05:42:35;;;;;;;171.43;52.75;;;14.60;99.90;;;;;;5047137;28;20068;-67
2023/05/09 05:45:03;;;;;;;214.23;57.13;;;14.80;99.90;;;;;;5043124;28;20043;-67
2023/05/09 05:47:32;;;;;;;143.52;52.17;;;14.60;99.90;;;;;;5042467;28;20039;-67
2023/05/09 05:49:58;;;;;;;189.52;54.72;;;14.90;99.90;;;;;;5042515;28;20076;-67
2023/05/09 05:52:25;;;;;;;181.90;52.80;;;14.90;99.90;;;;;;5040211;28;20045;-67
2023/05/09 05:54:51;;;;;;;155.05;53.50;;;15.10;99.90;;;;;;5043462;28;20057;-67
2023/05/09 05:57:16;;;;;;;137.20;50.70;;;14.80;99.90;;;;;;5069247;28;20130;-67
2023/05/09 05:59:42;;;;;;;161.40;52.58;;;14.90;99.90;;;;;;5041608;28;20496;-66
2023/05/09 06:02:07;;;;;;;212.82;56.20;;;15.20;99.90;;;;;;5040487;28;20049;-67
2023/05/09 06:04:33;;;;;;;156.05;52.47;;;15.30;99.90;;;;;;5038653;28;20037;-66
2023/05/09 06:06:58;;;;;;;203.80;56.85;;;15.30;99.90;;;;;;5039764;28;21575;-66
2023/05/09 06:09:24;;;;;;;219.00;59.25;;;15.10;99.90;;;;;;5038650;28;20500;-66
2023/05/09 06:11:49;;;;;;;222.90;58.35;;;15.40;99.90;;;;;;5039529;28;20066;-66
2023/05/09 06:14:15;;;;;;;201.20;56.97;;;15.40;99.90;;;;;;5039892;28;20469;-66
2023/05/09 06:16:40;;;;;;;155.88;52.58;;;15.20;99.90;;;;;;5038328;28;20143;-66
2023/05/09 06:19:06;;;;;;;223.25;57.10;;;15.30;99.90;;;;;;5043503;28;20736;-66
2023/05/09 06:21:33;;;;;;;149.05;53.33;;;15.50;99.90;;;;;;5041806;28;20510;-66
2023/05/09 06:23:58;;;;;;;185.63;54.92;;;15.50;99.90;;;;;;5039573;28;20496;-66
2023/05/09 06:26:25;;;;;;;208.93;56.35;;;15.40;99.90;;;;;;5048266;28;20091;-66
2023/05/09 06:28:50;;;;;;;219.90;58.80;;;15.60;99.90;;;;;;5035362;28;20492;-66
2023/05/09 06:31:16;;;;;;;224.98;57.67;;;15.30;99.90;;;;;;5043288;28;20131;-65
2023/05/09 06:33:41;;;;;;;204.63;56.28;;;15.30;99.90;;;;;;5037904;28;20063;-66
2023/05/09 06:36:07;;;;;;;182.27;54.45;;;15.40;99.90;;;;;;5042232;28;20045;-65
2023/05/09 06:38:48;;;;;;;198.00;57.25;;;15.50;99.90;;;;;;5046111;28;20052;-66
2023/05/09 06:41:13;;;;;;;144.40;52.67;;;15.60;99.90;;;;;;5037952;28;20124;-66
2023/05/09 06:43:39;;;;;;;220.25;56.28;;;15.40;99.90;;;;;;5046890;28;20120;-66
2023/05/09 06:46:04;;;;;;;182.95;53.80;;;15.50;99.90;;;;;;5043756;28;20035;-65
2023/05/09 06:48:30;;;;;;;161.77;52.78;;;15.60;99.90;;;;;;5041558;28;20122;-65
2023/05/09 06:50:55;;;;;;;165.75;52.88;;;15.60;99.90;;;;;;5047211;28;20484;-65
2023/05/09 06:53:21;;;;;;;180.57;53.08;;;15.90;99.90;;;;;;5046637;28;20095;-65
2023/05/09 06:55:47;;;;;;;161.07;53.67;;;15.80;99.90;;;;;;5044398;28;20166;-65
2023/05/09 06:59:06;;;;;;;157.10;50.58;;;15.90;99.90;;;;;;5062894;28;20091;-65
2023/05/09 07:01:32;;;;;;;127.95;46.95;;;16.10;99.90;;;;;;5044693;28;20053;-66
2023/05/09 07:03:58;;;;;;;126.93;46.85;;;16.10;99.90;;;;;;5036548;28;20079;-65
2023/05/09 07:06:24;;;;;;;123.18;45.30;;;16.40;99.90;;;;;;5046843;28;20067;-68
2023/05/09 07:08:49;;;;;;;122.93;45.22;;;16.30;99.90;;;;;;5036688;28;20049;-66
2023/05/09 07:11:51;;;;;;;115.07;43.38;;;16.30;99.90;;;;;;5044064;28;20440;-66
2023/05/09 07:14:16;;;;;;;116.07;42.92;;;16.20;99.90;;;;;;5048903;28;20041;-66
2023/05/09 07:16:42;;;;;;;104.30;43.05;;;16.20;99.90;;;;;;5042536;28;20091;-66
2023/05/09 07:19:07;;;;;;;108.20;42.70;;;16.30;99.90;;;;;;5046639;28;20048;-68
2023/05/09 07:21:33;;;;;;;107.47;42.55;;;16.40;99.90;;;;;;5051349;28;20113;-66
2023/05/09 07:23:58;;;;;;;115.63;42.47;;;16.60;99.90;;;;;;5041217;28;20042;-67
2023/05/09 07:26:24;;;;;;;109.10;42.78;;;16.60;99.90;;;;;;5031581;28;20049;-66
2023/05/09 07:28:49;;;;;;;119.78;43.65;;;16.70;99.90;;;;;;5049115;28;20029;-68
2023/05/09 07:31:15;;;;;;;104.55;44.10;;;16.70;99.90;;;;;;5047677;28;20045;-69
2023/05/09 07:33:41;;;;;;;110.15;42.25;;;16.50;99.90;;;;;;5046785;28;20202;-68
2023/05/09 07:36:06;;;;;;;103.40;43.20;;;16.70;99.90;;;;;;5031910;28;20572;-67
2023/05/09 07:38:32;;;;;;;92.97;40.38;;;16.60;99.90;;;;;;5048120;28;20040;-68
2023/05/09 07:40:57;;;;;;;89.47;39.80;;;16.80;99.90;;;;;;5076929;28;20041;-66
2023/05/09 07:43:23;;;;;;;91.68;39.92;;;16.60;99.90;;;;;;5038666;28;20095;-67
2023/05/09 07:45:48;;;;;;;86.60;38.42;;;16.60;99.90;;;;;;5030479;28;20086;-67
2023/05/09 07:48:14;;;;;;;85.45;38.15;;;16.80;99.90;;;;;;5040441;28;20087;-66
2023/05/09 07:50:40;;;;;;;93.72;39.40;;;16.80;99.90;;;;;;5032512;28;20037;-67
2023/05/09 07:53:05;;;;;;;83.85;38.00;;;16.90;99.90;;;;;;5035594;28;20094;-67
2023/05/09 07:55:31;;;;;;;81.90;36.63;;;16.90;99.90;;;;;;5044991;28;20052;-67
2023/05/09 07:57:56;;;;;;;72.80;35.70;;;16.90;99.90;;;;;;5029534;28;20563;-66
2023/05/09 08:00:22;;;;;;;71.05;35.08;;;16.90;99.90;;;;;;5033855;28;20037;-67
2023/05/09 08:02:51;;;;;;;64.63;33.03;;;17.00;99.90;;;;;;5034974;28;20085;-66
2023/05/09 08:05:17;;;;;;;71.50;34.60;;;17.10;99.90;;;;;;5029844;28;20036;-66
2023/05/09 08:07:43;;;;;;;67.93;33.13;;;17.10;99.90;;;;;;5042352;28;20033;-67
2023/05/09 08:10:08;;;;;;;66.07;32.55;;;17.00;99.90;;;;;;5041842;28;20102;-67
2023/05/09 08:12:34;;;;;;;63.50;33.20;;;17.00;99.90;;;;;;5072831;28;20120;-67
2023/05/09 08:15:00;;;;;;;67.38;34.25;;;17.10;99.90;;;;;;5045703;28;20348;-66
2023/05/09 08:17:25;;;;;;;69.05;34.05;;;17.20;99.90;;;;;;5036625;28;20380;-67
2023/05/09 08:19:51;;;;;;;61.20;30.95;;;17.20;99.90;;;;;;5042511;28;20084;-67
2023/05/09 08:22:17;;;;;;;60.42;30.75;;;17.20;99.90;;;;;;5043109;28;20501;-67
2023/05/09 08:24:44;;;;;;;54.05;27.95;;;17.30;99.90;;;;;;5041103;28;20049;-67
2023/05/09 08:27:12;;;;;;;53.45;28.30;;;17.20;99.90;;;;;;5039052;28;20091;-66
2023/05/09 08:29:37;;;;;;;56.55;28.75;;;17.20;99.90;;;;;;5042047;28;20049;-67
2023/05/09 08:32:03;;;;;;;56.78;28.23;;;17.20;99.90;;;;;;5043457;28;20589;-67
2023/05/09 08:34:33;;;;;;;54.90;27.73;;;17.20;99.90;;;;;;5043113;28;20037;-67
2023/05/09 08:37:02;;;;;;;52.88;27.10;;;17.20;99.90;;;;;;5046163;28;20052;-66
2023/05/09 08:39:28;;;;;;;49.30;27.02;;;17.30;99.90;;;;;;5018549;28;20416;-67
2023/05/09 08:42:00;;;;;;;54.00;27.45;;;17.20;99.90;;;;;;5045082;28;20045;-67
2023/05/09 08:44:27;;;;;;;;;;;17.30;99.90;;;;;;5044941;28;20037;-67
2023/05/09 08:46:57;;;;;;;53.60;27.65;;;17.30;99.90;;;;;;5076778;28;19917;-66
2023/05/09 08:49:23;;;;;;;46.22;26.05;;;17.40;99.90;;;;;;5039227;28;20087;-67
2023/05/09 08:51:50;;;;;;;49.88;25.92;;;17.50;99.90;;;;;;5046896;28;20471;-66
2023/05/09 08:54:15;;;;;;;48.95;25.92;;;17.60;99.90;;;;;;5050675;28;20080;-66
2023/05/09 08:56:41;;;;;;;43.92;24.60;;;17.60;99.90;;;;;;5052679;28;20069;-67
2023/05/09 08:59:08;;;;;;;50.03;25.73;;;17.70;99.90;;;;;;5075122;28;20434;-67
2023/05/09 09:01:36;;;;;;;46.85;26.15;;;17.80;99.90;;;;;;5048107;28;20045;-67
2023/05/09 09:04:06;;;;;;;46.75;24.95;;;17.90;99.90;;;;;;5044805;28;20102;-67
2023/05/09 09:06:35;;;;;;;45.13;24.90;;;18.00;99.90;;;;;;5077736;28;20044;-67
2023/05/09 09:09:04;;;;;;;40.33;23.05;;;18.10;99.90;;;;;;5042426;28;20041;-66
2023/05/09 09:11:31;;;;;;;38.05;22.88;;;18.20;99.90;;;;;;5041386;28;20045;-67
2023/05/09 09:14:01;;;;;;;40.47;23.55;;;18.30;99.90;;;;;;5041474;28;20032;-66
2023/05/09 09:16:28;;;;;;;36.42;21.58;;;18.40;99.90;;;;;;5060683;28;20044;-66
2023/05/09 09:18:55;;;;;;;38.03;21.65;;;18.50;99.90;;;;;;5044629;28;20384;-66
2023/05/09 09:21:22;;;;;;;39.10;21.95;;;18.50;99.90;;;;;;5051663;28;20064;-67
2023/05/09 09:23:48;;;;;;;32.20;20.35;;;18.50;99.90;;;;;;5047604;28;20043;-67
2023/05/09 09:26:14;;;;;;;31.98;18.77;;;18.60;99.90;;;;;;5043719;28;20116;-67
2023/05/09 09:28:40;;;;;;;34.05;19.58;;;18.60;99.90;;;;;;5037441;28;20037;-66
2023/05/09 09:31:21;;;;;;;33.55;19.20;;;18.70;99.90;;;;;;5030895;28;20081;-66
2023/05/09 09:33:47;;;;;;;30.90;18.90;;;18.80;99.90;;;;;;5041558;28;20033;-67
2023/05/09 09:36:13;;;;;;;31.83;18.95;;;18.90;99.90;;;;;;5052428;28;20044;-67
2023/05/09 09:38:43;;;;;;;34.28;18.88;;;18.90;99.90;;;;;;5049352;28;20047;-68
2023/05/09 09:41:11;;;;;;;32.58;19.98;;;19.00;99.90;;;;;;5051535;28;20037;-67
2023/05/09 09:43:37;;;;;;;31.40;18.90;;;19.00;99.90;;;;;;5048317;28;20083;-66
2023/05/09 09:46:03;;;;;;;27.85;18.45;;;19.00;99.90;;;;;;5051006;28;20040;-66
2023/05/09 09:48:34;;;;;;;31.90;19.02;;;19.00;99.90;;;;;;5048530;28;20086;-67
2023/05/09 09:51:17;;;;;;;30.65;19.27;;;19.10;99.90;;;;;;5051182;28;20128;-67
2023/05/09 09:53:44;;;;;;;29.60;18.80;;;19.00;99.90;;;;;;5043375;28;20052;-65
2023/05/09 09:56:10;;;;;;;35.92;19.40;;;19.20;99.90;;;;;;5052339;28;20045;-67
2023/05/09 09:58:36;;;;;;;31.23;19.70;;;19.30;99.90;;;;;;5047788;28;20045;-67
2023/05/09 10:01:19;;;;;;;28.25;18.98;;;19.40;99.90;;;;;;5049518;28;20128;-66
2023/05/09 10:03:45;;;;;;;27.30;17.70;;;19.40;99.90;;;;;;5045946;28;20124;-67
2023/05/09 10:06:12;;;;;;;24.70;17.85;;;19.40;99.90;;;;;;5051721;28;20037;-66
2023/05/09 10:08:39;;;;;;;26.77;18.17;;;19.50;99.90;;;;;;5047880;28;20557;-66
2023/05/09 10:11:05;;;;;;;27.33;19.08;;;19.50;99.90;;;;;;5048499;28;20045;-68
2023/05/09 10:13:33;;;;;;;30.75;19.25;;;19.50;99.90;;;;;;5046004;28;20128;-67
2023/05/09 10:15:59;;;;;;;28.02;19.15;;;19.50;99.90;;;;;;5030943;28;20048;-67
2023/05/09 10:18:32;;;;;;;31.13;19.65;;;19.40;99.90;;;;;;5035068;28;20048;-65
2023/05/09 10:21:00;;;;;;;27.13;19.67;;;19.30;99.90;;;;;;5049616;28;20045;-67
2023/05/09 10:23:28;;;;;;;27.02;19.77;;;19.20;99.90;;;;;;5047787;28;20049;-67
2023/05/09 10:26:07;;;;;;;27.20;19.55;;;19.00;99.90;;;;;;5032257;28;20033;-66
2023/05/09 10:28:34;;;;;;;28.17;19.45;;;19.00;99.90;;;;;;5047718;28;20091;-65
2023/05/09 10:31:21;;;;;;;29.08;19.50;;;18.90;99.90;;;;;;5042216;28;20424;-67
2023/05/09 10:33:49;;;;;;;27.33;18.77;;;18.90;99.90;;;;;;5048875;28;20110;-67
2023/05/09 10:36:20;;;;;;;29.52;19.58;;;18.80;99.90;;;;;;5046201;28;20040;-66
2023/05/09 10:38:47;;;;;;;26.48;18.92;;;18.70;99.90;;;;;;5048037;28;20053;-66
2023/05/09 10:41:15;;;;;;;26.95;19.13;;;18.70;99.90;;;;;;5048466;28;20052;-67
2023/05/09 10:43:42;;;;;;;24.85;17.60;;;18.80;99.90;;;;;;5049479;28;20036;-66
2023/05/09 10:46:08;;;;;;;26.02;17.88;;;18.80;99.90;;;;;;5047318;28;20598;-66
2023/05/09 10:48:35;;;;;;;23.85;17.05;;;18.80;99.90;;;;;;5050100;28;20040;-66
2023/05/09 10:51:02;;;;;;;24.75;17.75;;;18.70;99.90;;;;;;5043108;28;20510;-67
2023/05/09 10:53:44;;;;;;;28.48;18.35;;;18.70;99.90;;;;;;5049451;28;20202;-67
2023/05/09 10:56:28;;;;;;;24.45;16.90;;;18.60;99.90;;;;;;5048016;28;20484;-67
2023/05/09 10:58:53;;;;;;;23.65;17.13;;;18.60;99.90;;;;;;5048017;28;20064;-67
2023/05/09 11:04:45;;;;;;;24.52;17.92;;;18.30;99.90;;;;;;5044817;28;20060;-67
2023/05/09 11:07:25;;;;;;;28.38;17.80;;;18.20;99.90;;;;;;5048565;28;20480;-66
2023/05/09 11:10:08;;;;;;;25.60;18.23;;;18.00;99.90;;;;;;5043361;28;20108;-67
2023/05/09 11:12:33;;;;;;;;;;;18.00;99.90;;;;;;5034273;28;20116;-66
2023/05/09 11:15:06;;;;;;;26.00;18.33;;;18.10;99.90;;;;;;5037696;28;20019;-66
2023/05/09 11:17:36;;;;;;;26.65;18.55;;;18.30;99.90;;;;;;5046378;28;20087;-67
2023/05/09 11:20:05;;;;;;;26.30;19.02;;;18.30;99.90;;;;;;5050250;28;20037;-67
2023/05/09 11:22:43;;;;;;;26.00;19.30;;;18.20;99.90;;;;;;5045464;28;20136;-66
2023/05/09 11:25:10;;;;;;;26.92;19.73;;;18.10;99.90;;;;;;5049874;28;20060;-67
2023/05/09 11:27:41;;;;;;;26.33;19.13;;;18.00;99.90;;;;;;5042913;28;20189;-67
2023/05/09 11:30:08;;;;;;;28.35;20.00;;;17.90;99.90;;;;;;5045662;28;20412;-67
2023/05/09 11:32:44;;;;;;;32.20;21.52;;;17.90;99.90;;;;;;5045365;28;20396;-66
2023/05/09 11:35:18;;;;;;;27.83;20.42;;;17.90;99.90;;;;;;5043391;28;20040;-65
2023/05/09 11:37:51;;;;;;;27.73;20.25;;;17.90;99.90;;;;;;5047267;28;20049;-66
2023/05/09 11:40:19;;;;;;;28.88;20.83;;;17.90;99.90;;;;;;5048939;28;20076;-66
2023/05/09 11:42:47;;;;;;;31.55;21.85;;;18.00;99.90;;;;;;5036586;28;20378;-66
2023/05/09 11:45:13;;;;;;;32.53;20.73;;;18.10;99.90;;;;;;5047604;28;20033;-66
2023/05/09 11:47:39;;;;;;;27.92;20.17;;;18.10;99.90;;;;;;5078159;28;20032;-66
2023/05/09 11:50:10;;;;;;;30.80;20.67;;;18.10;99.90;;;;;;5037184;28;20032;-67
2023/05/09 11:52:37;;;;;;;27.75;20.33;;;18.20;99.90;;;;;;5047262;28;20052;-65
2023/05/09 11:55:06;;;;;;;27.98;20.58;;;18.20;99.90;;;;;;5047037;28;20037;-66
2023/05/09 11:57:31;;;;;;;30.45;20.85;;;18.20;99.90;;;;;;5047414;28;20110;-66
2023/05/09 11:59:59;;;;;;;31.90;21.40;;;18.30;99.90;;;;;;5046857;28;20257;-66
2023/05/09 12:02:24;;;;;;;31.00;20.77;;;18.30;99.90;;;;;;5042342;28;20144;-67
2023/05/09 12:04:50;;;;;;;28.05;20.80;;;18.30;99.90;;;;;;5050029;28;20582;-66
2023/05/09 12:07:17;;;;;;;31.08;22.23;;;18.30;99.90;;;;;;5048979;28;20033;-65
2023/05/09 12:09:43;;;;;;;31.17;22.48;;;18.20;99.90;;;;;;5048345;28;20411;-66
2023/05/09 12:12:10;;;;;;;29.60;22.67;;;18.10;99.90;;;;;;5052077;28;20043;-65
2023/05/09 12:14:36;;;;;;;33.70;24.05;;;18.00;99.90;;;;;;5047556;28;21145;-67
2023/05/09 12:17:03;;;;;;;32.83;23.10;;;17.90;99.90;;;;;;5050080;28;20040;-67
2023/05/09 12:19:28;;;;;;;34.50;24.88;;;17.80;99.90;;;;;;5052090;28;20047;-67
2023/05/09 12:21:59;;;;;;;37.25;24.45;;;17.60;99.90;;;;;;5038718;28;20041;-66
2023/05/09 12:24:28;;;;;;;39.50;25.98;;;17.40;99.90;;;;;;5036164;28;20389;-67
2023/05/09 12:27:08;;;;;;;41.33;27.30;;;17.30;99.90;;;;;;5049069;28;20509;-66
2023/05/09 12:29:34;;;;;;;42.75;29.35;;;17.30;99.90;;;;;;5052321;28;20040;-65